Time;durP1;ratioP1;P1;durP2;ratioP2;P2;SDS_P1;SDS_P2;PMS_P1;PMS_P2;Temp;Humidity;BMP_temperature;BMP_pressure;BME280_temperature;BME280_humidity;BME280_pressure;Samples;Min_cycle;Max_cycle;Signal;HPM_P1;HPM_P2
2021/07/05 00:00:10;;;;;;;11.07;7.53;;;;;;;15.50;84.16;100895.81;688252;28;1038;-67
2021/07/05 00:00:31;;;;;;;9.82;7.57;;;;;;;15.51;84.20;100897.50;688190;28;1023;-67
2021/07/05 00:00:52;;;;;;;10.15;7.53;;;;;;;15.54;83.91;100897.31;688424;28;923;-67
2021/07/05 00:01:13;;;;;;;10.23;7.40;;;;;;;15.57;84.04;100899.78;688303;28;907;-67
2021/07/05 00:01:33;;;;;;;10.18;7.32;;;;;;;15.57;83.92;100901.59;688248;28;987;-67
2021/07/05 00:01:56;;;;;;;10.77;7.45;;;;;;;15.58;83.63;100897.97;688310;28;790;-67
2021/07/05 00:02:17;;;;;;;10.30;7.63;;;;;;;15.55;83.80;100898.16;688303;28;916;-67
2021/07/05 00:02:37;;;;;;;9.88;7.40;;;;;;;15.58;83.65;100904.13;688251;28;876;-67
2021/07/05 00:02:57;;;;;;;10.50;7.10;;;;;;;15.62;83.61;100897.72;687940;28;852;-67
2021/07/05 00:03:18;;;;;;;10.53;7.00;;;;;;;15.62;83.34;100900.38;688299;28;976;-67
2021/07/05 00:03:38;;;;;;;8.93;7.03;;;;;;;15.64;83.31;100903.75;688121;28;908;-67
2021/07/05 00:04:01;;;;;;;10.60;7.55;;;;;;;15.65;83.47;100907.28;688399;28;809;-67
2021/07/05 00:04:21;;;;;;;10.98;7.50;;;;;;;15.65;83.28;100894.84;688310;28;856;-67
2021/07/05 00:04:43;;;;;;;10.53;7.40;;;;;;;15.63;83.27;100903.88;688214;28;868;-67
2021/07/05 00:05:06;;;;;;;9.75;7.40;;;;;;;15.64;83.41;100903.75;688420;28;896;-67
2021/07/05 00:05:27;;;;;;;10.77;7.13;;;;;;;15.66;83.29;100895.75;688181;28;896;-67
2021/07/05 00:05:47;;;;;;;10.38;7.22;;;;;;;15.66;83.69;100907.22;688184;28;825;-67
2021/07/05 00:06:07;;;;;;;12.57;7.13;;;;;;;15.66;83.59;100903.72;688367;28;856;-67
2021/07/05 00:06:28;;;;;;;9.45;6.85;;;;;;;15.69;83.38;100907.97;688222;28;1004;-67
2021/07/05 00:06:48;;;;;;;9.37;6.80;;;;;;;15.72;83.45;100899.81;688337;28;1220;-67
2021/07/05 00:07:09;;;;;;;9.93;7.00;;;;;;;15.73;83.33;100906.84;688348;28;990;-67
2021/07/05 00:07:29;;;;;;;10.30;7.13;;;;;;;15.71;83.79;100903.44;688192;28;880;-67
2021/07/05 00:07:49;;;;;;;10.50;7.60;;;;;;;15.72;83.64;100894.50;688183;28;1380;-67
2021/07/05 00:08:10;;;;;;;10.60;7.40;;;;;;;15.76;83.44;100896.00;688242;28;853;-67
2021/07/05 00:08:31;;;;;;;10.57;7.67;;;;;;;15.76;83.80;100898.66;688320;28;917;-67
2021/07/05 00:08:51;;;;;;;10.32;7.68;;;;;;;15.67;83.33;100894.78;688341;28;860;-67
2021/07/05 00:09:11;;;;;;;9.73;7.13;;;;;;;15.70;83.12;100901.72;688129;28;986;-67
2021/07/05 00:09:33;;;;;;;9.30;6.95;;;;;;;15.71;83.09;100898.97;688285;28;995;-67
2021/07/05 00:09:53;;;;;;;9.75;7.30;;;;;;;15.73;83.43;100901.53;687954;28;865;-67
2021/07/05 00:10:17;;;;;;;9.53;7.10;;;;;;;15.77;83.04;100898.59;687950;28;979;-67
2021/07/05 00:10:37;;;;;;;10.55;7.40;;;;;;;15.70;82.65;100894.59;687993;28;866;-67
2021/07/05 00:10:58;;;;;;;9.68;7.43;;;;;;;15.75;82.75;100894.31;688020;28;923;-67
2021/07/05 00:11:18;;;;;;;10.20;7.63;;;;;;;15.76;82.85;100899.53;688100;28;827;-67
2021/07/05 00:11:39;;;;;;;10.00;7.50;;;;;;;15.75;82.92;100894.31;688171;28;898;-67
2021/07/05 00:11:59;;;;;;;10.30;7.78;;;;;;;15.78;82.87;100899.44;688124;28;923;-67
2021/07/05 00:12:20;;;;;;;10.93;7.40;;;;;;;15.81;82.47;100896.59;688263;28;850;-67
2021/07/05 00:12:44;;;;;;;10.20;7.50;;;;;;;15.80;83.09;100897.56;688025;28;944;-67
2021/07/05 00:13:05;;;;;;;9.27;7.00;;;;;;;15.81;82.77;100893.94;688363;28;1013;-67
2021/07/05 00:13:25;;;;;;;9.87;7.30;;;;;;;15.82;83.04;100892.97;688281;28;844;-67
2021/07/05 00:13:45;;;;;;;9.97;7.07;;;;;;;15.83;83.02;100897.34;688200;28;1027;-67
2021/07/05 00:14:06;;;;;;;11.32;7.68;;;;;;;15.84;82.69;100897.25;688238;28;1023;-67
2021/07/05 00:14:26;;;;;;;9.87;7.20;;;;;;;15.84;82.95;100888.44;688265;28;878;-67
2021/07/05 00:14:46;;;;;;;9.60;7.47;;;;;;;15.86;82.65;100898.03;688174;28;1067;-68
2021/07/05 00:15:07;;;;;;;9.88;7.30;;;;;;;15.85;82.67;100895.44;688338;28;892;-67
2021/07/05 00:15:31;;;;;;;10.55;6.93;;;;;;;15.85;82.70;100896.28;688236;28;983;-67
2021/07/05 00:15:51;;;;;;;9.95;6.88;;;;;;;15.87;83.14;100894.41;688172;28;1906;-67
2021/07/05 00:16:11;;;;;;;10.60;6.90;;;;;;;15.88;82.79;100897.91;688188;28;872;-67
2021/07/05 00:16:31;;;;;;;11.95;7.20;;;;;;;15.85;83.04;100892.78;688138;28;813;-68
2021/07/05 00:16:53;;;;;;;10.10;7.20;;;;;;;15.85;82.77;100893.63;688197;28;1042;-67
2021/07/05 00:17:13;;;;;;;10.18;7.20;;;;;;;15.85;82.58;100895.44;688361;28;938;-67
2021/07/05 00:17:34;;;;;;;10.47;7.17;;;;;;;15.86;82.98;100899.78;688169;28;955;-67
2021/07/05 00:17:57;;;;;;;10.53;7.10;;;;;;;15.83;82.62;100897.34;688268;28;1251;-67
2021/07/05 00:18:18;;;;;;;10.07;6.95;;;;;;;15.85;82.76;100900.75;688129;28;990;-67
2021/07/05 00:18:38;;;;;;;8.77;6.68;;;;;;;15.85;82.82;100893.63;688249;28;839;-68
2021/07/05 00:18:58;;;;;;;9.00;6.67;;;;;;;15.86;82.82;100902.44;688336;28;932;-67
2021/07/05 00:19:19;;;;;;;9.27;6.80;;;;;;;15.82;82.82;100899.13;688202;28;880;-67
2021/07/05 00:19:39;;;;;;;9.25;6.82;;;;;;;15.88;82.26;100900.56;688237;28;790;-67
2021/07/05 00:19:59;;;;;;;10.60;6.87;;;;;;;15.87;82.45;100894.41;688123;28;1010;-67
2021/07/05 00:20:20;;;;;;;9.70;6.80;;;;;;;15.83;82.07;100895.56;688190;28;980;-67
2021/07/05 00:20:43;;;;;;;9.25;6.85;;;;;;;15.85;82.31;100895.44;688207;28;835;-67
2021/07/05 00:21:04;;;;;;;9.43;6.75;;;;;;;15.77;82.35;100895.94;688187;28;876;-67
2021/07/05 00:21:24;;;;;;;10.27;7.10;;;;;;;15.75;82.39;100896.97;688294;28;884;-67
2021/07/05 00:21:44;;;;;;;9.77;7.33;;;;;;;15.77;82.39;100892.41;688189;28;801;-67
2021/07/05 00:22:05;;;;;;;9.05;6.70;;;;;;;15.78;82.61;100883.50;688277;28;833;-66
2021/07/05 00:22:25;;;;;;;8.87;7.03;;;;;;;15.78;82.42;100896.78;688120;28;819;-65
2021/07/05 00:22:46;;;;;;;10.38;7.05;;;;;;;15.82;82.23;100890.31;687738;28;936;-68
2021/07/05 00:23:07;;;;;;;9.20;6.47;;;;;;;15.82;81.99;100890.31;688251;28;920;-66
2021/07/05 00:23:27;;;;;;;8.82;6.15;;;;;;;15.83;81.81;100886.72;688211;28;999;-66
2021/07/05 00:23:48;;;;;;;9.47;6.20;;;;;;;15.87;81.76;100890.91;688177;28;912;-67
2021/07/05 00:24:08;;;;;;;10.85;6.38;;;;;;;15.87;81.40;100893.56;688254;28;859;-66
2021/07/05 00:24:29;;;;;;;10.13;6.50;;;;;;;15.84;81.71;100893.75;688167;28;935;-67
2021/07/05 00:24:49;;;;;;;9.65;6.32;;;;;;;15.84;81.71;100885.78;687907;28;940;-67
2021/07/05 00:25:10;;;;;;;10.67;6.23;;;;;;;15.83;81.72;100897.34;688079;28;922;-66
2021/07/05 00:25:31;;;;;;;10.50;6.72;;;;;;;15.83;81.83;100889.38;688036;28;896;-68
2021/07/05 00:25:51;;;;;;;10.10;6.63;;;;;;;15.81;81.86;100893.94;688092;28;1038;-68
2021/07/05 00:26:12;;;;;;;9.50;6.40;;;;;;;15.83;81.98;100892.03;688051;28;829;-65
2021/07/05 00:26:32;;;;;;;9.95;6.53;;;;;;;15.83;81.98;100897.34;687894;28;864;-66
2021/07/05 00:26:52;;;;;;;8.77;6.20;;;;;;;15.83;82.18;100900.00;688256;28;919;-66
2021/07/05 00:27:13;;;;;;;8.57;5.73;;;;;;;15.82;82.26;100895.63;688151;28;1046;-66
2021/07/05 00:27:33;;;;;;;9.15;6.32;;;;;;;15.77;82.35;100893.28;688293;28;864;-66
2021/07/05 00:27:53;;;;;;;8.57;6.13;;;;;;;15.77;82.45;100898.59;688206;28;1229;-66
2021/07/05 00:28:13;;;;;;;8.23;5.93;;;;;;;15.77;82.40;100893.28;688184;28;836;-67
2021/07/05 00:28:34;;;;;;;8.82;6.03;;;;;;;15.78;82.47;100896.78;688123;28;793;-65
2021/07/05 00:28:54;;;;;;;10.17;6.50;;;;;;;15.78;82.17;100891.47;688320;28;1054;-65
2021/07/05 00:29:14;;;;;;;8.90;6.20;;;;;;;15.81;82.65;100893.94;688131;28;1007;-66
2021/07/05 00:29:35;;;;;;;8.98;6.10;;;;;;;15.81;82.51;100899.25;688299;28;991;-66
2021/07/05 00:29:55;;;;;;;9.50;6.10;;;;;;;15.83;82.35;100897.34;688085;28;919;-67
2021/07/05 00:30:16;;;;;;;9.00;5.87;;;;;;;15.85;82.28;100896.28;688190;28;981;-66
2021/07/05 00:30:37;;;;;;;9.18;6.30;;;;;;;15.87;82.00;100896.22;688042;28;1197;-66
2021/07/05 00:30:58;;;;;;;9.20;6.50;;;;;;;15.83;81.98;100887.56;688241;28;852;-66
2021/07/05 00:31:18;;;;;;;8.27;6.17;;;;;;;15.82;82.41;100890.31;688312;28;824;-67
2021/07/05 00:31:39;;;;;;;8.80;6.27;;;;;;;15.83;82.52;100892.03;688291;28;888;-67
2021/07/05 00:31:59;;;;;;;9.40;6.45;;;;;;;15.83;82.25;100897.34;688282;28;963;-67
2021/07/05 00:32:19;;;;;;;9.20;6.63;;;;;;;15.82;82.50;100890.31;688218;28;828;-66
2021/07/05 00:32:40;;;;;;;9.70;6.47;;;;;;;15.82;82.30;100890.31;687859;28;883;-67
2021/07/05 00:33:00;;;;;;;9.20;6.63;;;;;;;15.82;82.44;100892.97;687999;28;824;-67
2021/07/05 00:33:20;;;;;;;8.57;6.50;;;;;;;15.81;82.69;100893.94;688266;28;936;-67
2021/07/05 00:33:40;;;;;;;9.00;6.40;;;;;;;15.80;82.73;100892.22;688186;28;926;-66
2021/07/05 00:34:01;;;;;;;9.17;6.50;;;;;;;15.80;82.43;100892.22;688316;28;856;-66
2021/07/05 00:34:21;;;;;;;9.02;6.47;;;;;;;15.80;82.70;100893.09;688019;28;947;-66
2021/07/05 00:34:41;;;;;;;9.63;6.70;;;;;;;15.82;82.25;100891.16;687935;28;991;-66
2021/07/05 00:35:03;;;;;;;10.10;6.93;;;;;;;15.85;82.58;100890.13;688257;28;838;-66
2021/07/05 00:35:25;;;;;;;9.10;6.60;;;;;;;15.81;82.37;100893.94;688217;28;865;-66
2021/07/05 00:35:45;;;;;;;10.18;6.80;;;;;;;15.78;82.33;100884.34;688129;28;1911;-66
2021/07/05 00:36:05;;;;;;;9.33;6.50;;;;;;;15.78;82.92;100889.66;688354;28;781;-67
2021/07/05 00:36:26;;;;;;;10.65;6.60;;;;;;;15.77;82.78;100887.97;688080;28;1019;-66
2021/07/05 00:36:46;;;;;;;9.60;6.70;;;;;;;15.77;83.30;100882.63;688260;28;900;-66
2021/07/05 00:37:06;;;;;;;10.93;6.77;;;;;;;15.78;83.42;100888.81;688232;28;900;-67
2021/07/05 00:37:26;;;;;;;10.77;7.13;;;;;;;15.72;83.01;100883.88;688234;28;785;-67
2021/07/05 00:37:47;;;;;;;10.27;7.20;;;;;;;15.70;83.23;100881.31;690696;28;1304;-67
2021/07/05 00:38:08;;;;;;;9.82;6.68;;;;;;;15.71;83.31;100887.47;690673;28;821;-66
2021/07/05 00:38:28;;;;;;;9.10;6.60;;;;;;;15.74;83.09;100884.63;690686;28;975;-67
2021/07/05 00:38:48;;;;;;;9.43;6.90;;;;;;;15.73;83.18;100880.28;690708;28;893;-67
2021/07/05 00:39:09;;;;;;;10.35;6.78;;;;;;;15.78;82.65;100894.97;690656;28;931;-67
2021/07/05 00:39:29;;;;;;;10.53;7.17;;;;;;;15.80;82.58;100886.91;690608;28;867;-66
2021/07/05 00:39:49;;;;;;;10.02;7.03;;;;;;;15.82;82.63;100885.00;688204;28;1008;-66
2021/07/05 00:40:10;;;;;;;9.90;6.70;;;;;;;15.82;82.47;100883.19;688296;28;908;-66
2021/07/05 00:40:30;;;;;;;9.13;6.63;;;;;;;15.85;82.24;100882.16;688187;28;793;-66
2021/07/05 00:40:51;;;;;;;11.13;7.07;;;;;;;15.83;82.27;100881.41;688191;28;858;-66
2021/07/05 00:41:11;;;;;;;10.85;7.05;;;;;;;15.84;82.65;100888.44;688171;28;967;-66
2021/07/05 00:41:32;;;;;;;10.30;6.93;;;;;;;15.82;82.57;100883.19;688277;28;849;-67
2021/07/05 00:41:52;;;;;;;10.02;7.03;;;;;;;15.85;82.54;100884.81;688234;28;849;-66
2021/07/05 00:42:12;;;;;;;9.90;6.80;;;;;;;15.83;82.55;100882.25;688261;28;915;-67
2021/07/05 00:42:34;;;;;;;9.67;6.93;;;;;;;15.81;82.39;100884.16;688090;28;877;-67
2021/07/05 00:42:55;;;;;;;9.85;6.80;;;;;;;15.83;82.74;100886.72;687747;28;849;-67
2021/07/05 00:43:16;;;;;;;11.13;7.32;;;;;;;15.83;82.75;100889.38;687922;28;1276;-67
2021/07/05 00:43:36;;;;;;;9.43;6.77;;;;;;;15.78;82.58;100886.16;688006;28;860;-67
2021/07/05 00:43:57;;;;;;;9.80;7.03;;;;;;;15.73;82.71;100885.59;688130;28;1002;-67
2021/07/05 00:44:17;;;;;;;10.70;7.50;;;;;;;15.70;82.93;100885.78;688093;28;964;-67
2021/07/05 00:44:38;;;;;;;11.00;7.68;;;;;;;15.69;83.13;100884.06;687883;28;994;-67
2021/07/05 00:44:58;;;;;;;10.80;7.37;;;;;;;15.66;82.97;100880.66;688185;28;915;-67
2021/07/05 00:45:19;;;;;;;10.53;7.13;;;;;;;15.68;82.90;100882.34;688220;28;802;-67
2021/07/05 00:45:39;;;;;;;10.68;7.32;;;;;;;15.70;83.08;100880.47;688249;28;911;-67
2021/07/05 00:46:00;;;;;;;10.43;7.20;;;;;;;15.74;82.74;100888.16;688313;28;864;-67
2021/07/05 00:46:20;;;;;;;9.82;7.43;;;;;;;15.73;82.98;100881.13;688215;28;986;-67
2021/07/05 00:46:40;;;;;;;9.97;7.30;;;;;;;15.77;82.78;100884.44;688148;28;848;-67
2021/07/05 00:47:01;;;;;;;9.93;7.10;;;;;;;15.78;82.38;100884.34;688375;28;848;-67
2021/07/05 00:47:21;;;;;;;11.23;7.22;;;;;;;15.84;82.40;100881.31;688166;28;905;-67
2021/07/05 00:47:42;;;;;;;10.10;7.07;;;;;;;15.84;82.58;100883.97;688239;28;860;-67
2021/07/05 00:48:02;;;;;;;10.03;7.07;;;;;;;15.85;82.26;100884.81;688160;28;1465;-67
2021/07/05 00:48:23;;;;;;;9.67;7.00;;;;;;;15.82;82.61;100882.34;688232;28;875;-67
2021/07/05 00:48:44;;;;;;;10.50;7.28;;;;;;;15.80;82.92;100884.25;688130;28;1015;-67
2021/07/05 00:49:04;;;;;;;10.52;7.60;;;;;;;15.79;82.90;100890.50;688206;28;1014;-67
2021/07/05 00:49:24;;;;;;;11.73;7.70;;;;;;;15.78;83.13;100888.81;688181;28;1179;-67
2021/07/05 00:49:45;;;;;;;9.43;7.10;;;;;;;15.79;82.88;100885.19;687959;28;920;-67
2021/07/05 00:50:07;;;;;;;9.48;7.03;;;;;;;15.79;83.00;100890.50;687976;28;998;-67
2021/07/05 00:50:29;;;;;;;9.52;7.07;;;;;;;15.80;82.71;100884.25;687969;28;1031;-67
2021/07/05 00:50:49;;;;;;;9.75;7.05;;;;;;;15.82;82.98;100890.31;687957;28;839;-67
2021/07/05 00:51:10;;;;;;;11.40;7.47;;;;;;;15.83;83.08;100884.06;688144;28;999;-67
2021/07/05 00:51:31;;;;;;;10.27;7.20;;;;;;;15.83;82.73;100887.56;688090;28;935;-67
2021/07/05 00:51:52;;;;;;;12.38;7.53;;;;;;;15.75;82.98;100883.69;688213;28;899;-67
2021/07/05 00:52:12;;;;;;;11.13;7.55;;;;;;;15.76;83.17;100880.94;688402;28;888;-68
2021/07/05 00:52:35;;;;;;;10.73;7.38;;;;;;;15.75;83.21;100883.69;688238;28;805;-67
2021/07/05 00:52:57;;;;;;;10.50;7.72;;;;;;;15.68;83.08;100877.88;687843;28;946;-68
2021/07/05 00:53:18;;;;;;;10.85;7.90;;;;;;;15.68;83.53;100887.66;688219;28;868;-67
2021/07/05 00:53:39;;;;;;;10.95;7.90;;;;;;;15.64;83.99;100879.00;688104;28;864;-67
2021/07/05 00:53:59;;;;;;;12.13;8.13;;;;;;;15.65;83.74;100876.25;688188;28;846;-68
2021/07/05 00:54:19;;;;;;;13.65;8.20;;;;;;;15.66;83.53;100875.34;688224;28;872;-67
2021/07/05 00:54:41;;;;;;;11.47;7.87;;;;;;;15.68;83.67;100867.25;687983;28;832;-67
2021/07/05 00:55:03;;;;;;;12.13;7.80;;;;;;;15.70;83.51;100875.16;688139;28;894;-68
2021/07/05 00:55:25;;;;;;;11.27;7.68;;;;;;;15.68;84.06;100872.56;688006;28;994;-67
2021/07/05 00:55:46;;;;;;;10.52;8.00;;;;;;;15.69;83.60;100868.13;688070;28;1902;-67
2021/07/05 00:56:06;;;;;;;11.15;7.65;;;;;;;15.69;83.58;100876.09;688264;28;927;-67
2021/07/05 00:56:27;;;;;;;10.47;7.87;;;;;;;15.71;83.82;100877.72;688169;28;1000;-68
2021/07/05 00:56:47;;;;;;;11.48;8.38;;;;;;;15.77;83.47;100876.47;688109;28;991;-67
2021/07/05 00:57:20;;;;;;;10.90;8.17;;;;;;;15.75;83.52;100873.06;688366;28;801;-67
2021/07/05 00:57:40;;;;;;;11.00;7.80;;;;;;;15.76;83.72;100877.41;688242;28;881;-66
2021/07/05 00:58:01;;;;;;;10.90;8.00;;;;;;;15.77;83.74;100876.47;688049;28;1449;-67
2021/07/05 00:58:21;;;;;;;11.83;7.80;;;;;;;15.72;83.55;100881.22;688215;28;912;-67
2021/07/05 00:58:42;;;;;;;11.77;7.93;;;;;;;15.70;84.10;100867.19;688243;28;987;-66
2021/07/05 00:59:04;;;;;;;11.73;8.17;;;;;;;15.71;84.04;100876.84;688087;28;939;-66
2021/07/05 00:59:24;;;;;;;11.55;8.20;;;;;;;15.68;83.96;100877.03;688189;28;1094;-68
2021/07/05 00:59:46;;;;;;;12.30;8.25;;;;;;;15.71;83.83;100868.88;688299;28;962;-67
2021/07/05 01:00:10;;;;;;;11.15;8.00;;;;;;;15.72;84.19;100874.09;688119;28;1003;-67
2021/07/05 01:00:31;;;;;;;11.02;7.95;;;;;;;15.76;83.99;100880.94;688098;28;919;-67
2021/07/05 01:00:52;;;;;;;11.20;7.82;;;;;;;15.79;83.85;100863.94;688138;28;921;-66
2021/07/05 01:01:12;;;;;;;11.67;8.07;;;;;;;15.80;83.61;100873.63;688290;28;971;-67
2021/07/05 01:01:33;;;;;;;12.15;7.90;;;;;;;15.80;83.53;100870.97;688194;28;871;-66
2021/07/05 01:01:53;;;;;;;10.77;7.80;;;;;;;15.80;83.59;100877.13;688088;28;832;-66
2021/07/05 01:02:14;;;;;;;11.23;7.78;;;;;;;15.80;83.69;100868.31;688192;28;944;-66
2021/07/05 01:02:34;;;;;;;12.15;7.85;;;;;;;15.76;83.54;100870.31;688075;28;1042;-67
2021/07/05 01:02:55;;;;;;;12.43;8.00;;;;;;;15.76;83.58;100864.13;687719;28;835;-67
2021/07/05 01:03:16;;;;;;;11.00;7.68;;;;;;;15.77;83.74;100868.50;688319;28;901;-67
2021/07/05 01:03:36;;;;;;;10.75;7.40;;;;;;;15.78;83.61;100875.53;688139;28;895;-67
2021/07/05 01:03:56;;;;;;;10.03;7.50;;;;;;;15.79;83.74;100869.25;688127;28;826;-67
2021/07/05 01:04:17;;;;;;;11.25;7.90;;;;;;;15.81;83.65;100872.66;688164;28;1034;-67
2021/07/05 01:04:37;;;;;;;11.43;8.03;;;;;;;15.81;83.71;100870.88;688109;28;856;-67
2021/07/05 01:04:57;;;;;;;10.67;7.80;;;;;;;15.79;83.30;100875.41;688115;28;961;-67
2021/07/05 01:05:19;;;;;;;11.35;7.57;;;;;;;15.80;83.33;100870.97;688154;28;1003;-67
2021/07/05 01:05:39;;;;;;;10.43;7.50;;;;;;;15.78;83.71;100864.88;687876;28;1090;-67
2021/07/05 01:06:00;;;;;;;10.63;7.43;;;;;;;15.78;83.93;100864.88;688034;28;836;-67
2021/07/05 01:06:20;;;;;;;10.48;7.32;;;;;;;15.79;83.71;100870.09;687808;28;966;-67
2021/07/05 01:06:40;;;;;;;10.15;7.90;;;;;;;15.80;83.72;100868.31;687984;28;819;-67
2021/07/05 01:07:01;;;;;;;10.43;7.70;;;;;;;15.82;83.85;100864.59;687941;28;994;-67
2021/07/05 01:07:23;;;;;;;10.63;7.53;;;;;;;15.81;83.59;100864.69;687940;28;848;-66
2021/07/05 01:07:45;;;;;;;10.23;7.50;;;;;;;15.82;83.82;100869.06;688080;28;1310;-67
2021/07/05 01:08:05;;;;;;;9.68;7.50;;;;;;;15.82;83.85;100869.06;688125;28;876;-66
2021/07/05 01:08:26;;;;;;;10.53;7.37;;;;;;;15.80;83.73;100869.16;688145;28;896;-67
2021/07/05 01:08:46;;;;;;;9.90;7.60;;;;;;;15.80;83.60;100870.97;688176;28;848;-67
2021/07/05 01:09:06;;;;;;;10.40;7.90;;;;;;;15.84;83.85;100869.81;688058;28;816;-67
2021/07/05 01:09:27;;;;;;;11.10;7.60;;;;;;;15.86;83.50;100857.28;688175;28;983;-67
2021/07/05 01:09:47;;;;;;;10.65;7.50;;;;;;;15.84;83.64;100865.34;688130;28;983;-69
2021/07/05 01:10:09;;;;;;;10.33;7.50;;;;;;;15.85;83.12;100863.56;688189;28;2017;-66
2021/07/05 01:10:29;;;;;;;10.43;7.43;;;;;;;15.81;83.20;100862.88;688100;28;879;-67
2021/07/05 01:10:50;;;;;;;9.77;7.20;;;;;;;15.82;83.58;100869.06;688105;28;922;-67
2021/07/05 01:11:10;;;;;;;9.93;7.13;;;;;;;15.84;83.33;100868.00;688181;28;844;-66
2021/07/05 01:11:30;;;;;;;9.73;7.30;;;;;;;15.83;83.51;100865.47;688200;28;979;-66
2021/07/05 01:11:51;;;;;;;10.47;7.30;;;;;;;15.80;83.86;100865.66;688045;28;971;-67
2021/07/05 01:12:12;;;;;;;10.70;7.23;;;;;;;15.78;83.78;100863.09;688203;28;916;-66
2021/07/05 01:12:33;;;;;;;10.00;7.10;;;;;;;15.78;83.80;100864.88;687999;28;852;-67
2021/07/05 01:12:55;;;;;;;10.77;7.47;;;;;;;15.76;84.38;100869.44;687715;28;862;-66
2021/07/05 01:13:16;;;;;;;10.35;7.45;;;;;;;15.69;84.56;100865.47;688086;28;829;-66
2021/07/05 01:13:37;;;;;;;10.37;6.90;;;;;;;15.70;84.16;100868.03;688111;28;922;-66
2021/07/05 01:13:57;;;;;;;9.70;7.10;;;;;;;15.72;84.29;100867.94;688192;28;880;-66
2021/07/05 01:14:17;;;;;;;9.00;6.88;;;;;;;15.71;84.06;100867.06;688108;28;801;-67
2021/07/05 01:14:39;;;;;;;8.63;6.50;;;;;;;15.72;84.35;100867.94;688051;28;908;-66
2021/07/05 01:15:00;;;;;;;9.32;6.55;;;;;;;15.72;83.92;100862.63;688229;28;963;-66
2021/07/05 01:15:23;;;;;;;10.23;6.50;;;;;;;15.71;84.22;100867.06;688035;28;812;-67
2021/07/05 01:15:43;;;;;;;10.70;6.55;;;;;;;15.77;84.37;100861.38;688103;28;1910;-66
2021/07/05 01:16:04;;;;;;;10.97;6.50;;;;;;;15.77;84.15;100860.53;688212;28;789;-66
2021/07/05 01:16:24;;;;;;;10.27;6.35;;;;;;;15.77;83.78;100857.88;688105;28;978;-66
2021/07/05 01:16:44;;;;;;;8.87;6.17;;;;;;;15.73;83.53;100859.03;688033;28;1042;-66
2021/07/05 01:17:10;;;;;;;8.13;5.87;;;;;;;15.74;83.62;100856.25;688078;28;935;-67
2021/07/05 01:17:30;;;;;;;9.45;5.60;;;;;;;15.77;83.70;100856.06;688226;28;887;-66
2021/07/05 01:17:55;;;;;;;9.27;5.85;;;;;;;15.79;83.89;100851.50;688128;28;1390;-67
2021/07/05 01:18:15;;;;;;;8.68;5.72;;;;;;;15.80;83.92;100855.88;688076;28;895;-66
2021/07/05 01:18:36;;;;;;;8.45;5.60;;;;;;;15.83;83.93;100850.38;688196;28;808;-66
2021/07/05 01:18:57;;;;;;;7.90;5.40;;;;;;;15.84;83.54;100849.41;688100;28;789;-67
2021/07/05 01:19:18;;;;;;;8.63;5.65;;;;;;;15.85;83.50;100848.44;688191;28;852;-66
2021/07/05 01:19:39;;;;;;;8.83;5.70;;;;;;;15.86;83.82;100849.31;688275;28;903;-66
2021/07/05 01:19:59;;;;;;;8.35;5.68;;;;;;;15.85;83.83;100848.44;688153;28;841;-66
2021/07/05 01:20:22;;;;;;;7.80;5.70;;;;;;;15.87;83.63;100848.38;688109;28;873;-66
2021/07/05 01:20:43;;;;;;;9.15;5.50;;;;;;;15.87;83.75;100841.25;688049;28;879;-66
2021/07/05 01:21:03;;;;;;;9.17;5.70;;;;;;;15.86;83.33;100847.53;688142;28;864;-66
2021/07/05 01:21:23;;;;;;;8.68;5.40;;;;;;;15.84;82.94;100851.22;688241;28;867;-66
2021/07/05 01:21:44;;;;;;;8.33;5.03;;;;;;;15.80;83.08;100849.72;688136;28;978;-67
2021/07/05 01:22:04;;;;;;;7.80;4.97;;;;;;;15.77;83.21;100853.41;688137;28;990;-66
2021/07/05 01:22:25;;;;;;;6.90;4.88;;;;;;;15.76;83.24;100846.41;688123;28;887;-67
2021/07/05 01:22:45;;;;;;;8.10;4.90;;;;;;;15.78;83.07;100847.13;687594;28;946;-67
2021/07/05 01:23:08;;;;;;;9.53;4.50;;;;;;;15.75;82.89;100844.66;688198;28;856;-67
2021/07/05 01:23:29;;;;;;;8.00;4.70;;;;;;;15.75;82.50;100841.16;688201;28;841;-67
2021/07/05 01:23:49;;;;;;;8.35;4.70;;;;;;;15.78;82.18;100846.28;688258;28;808;-67
2021/07/05 01:24:09;;;;;;;8.80;4.57;;;;;;;15.78;82.43;100843.63;688185;28;880;-67
2021/07/05 01:24:30;;;;;;;8.03;4.57;;;;;;;15.79;82.34;100846.19;688146;28;831;-67
2021/07/05 01:24:50;;;;;;;8.20;4.93;;;;;;;15.84;82.41;100845.91;688002;28;910;-66
2021/07/05 01:25:14;;;;;;;7.65;4.65;;;;;;;15.85;82.20;100839.63;688269;28;891;-67
2021/07/05 01:25:36;;;;;;;7.93;4.78;;;;;;;15.88;82.26;100844.75;688182;28;872;-66
2021/07/05 01:25:56;;;;;;;7.38;4.72;;;;;;;15.86;82.21;100846.66;688250;28;934;-67
2021/07/05 01:26:17;;;;;;;7.93;4.70;;;;;;;15.84;82.42;100845.91;688175;28;951;-66
2021/07/05 01:26:37;;;;;;;8.27;4.67;;;;;;;15.84;82.54;100841.44;688251;28;864;-67
2021/07/05 01:26:58;;;;;;;6.90;4.68;;;;;;;15.83;82.31;100847.72;688171;28;903;-67
2021/07/05 01:27:18;;;;;;;7.70;4.50;;;;;;;15.81;82.58;100846.09;687997;28;987;-68
2021/07/05 01:27:39;;;;;;;7.13;4.30;;;;;;;15.84;81.94;100844.09;688207;28;801;-66
2021/07/05 01:28:01;;;;;;;9.13;4.55;;;;;;;15.85;81.73;100842.28;688102;28;1046;-67
2021/07/05 01:28:22;;;;;;;7.80;4.60;;;;;;;15.86;81.94;100849.31;688196;28;892;-68
2021/07/05 01:28:43;;;;;;;7.85;4.57;;;;;;;15.86;81.80;100839.56;688069;28;913;-66
2021/07/05 01:29:05;;;;;;;8.03;4.40;;;;;;;15.86;82.40;100841.31;688034;28;903;-67
2021/07/05 01:29:25;;;;;;;8.40;4.55;;;;;;;15.85;82.04;100847.59;688220;28;952;-67
2021/07/05 01:29:45;;;;;;;8.23;4.50;;;;;;;15.83;82.52;100841.56;688085;28;1313;-67
2021/07/05 01:30:07;;;;;;;8.10;4.67;;;;;;;15.81;82.22;100846.09;688291;28;924;-66
2021/07/05 01:30:28;;;;;;;8.07;4.70;;;;;;;15.75;82.37;100847.31;688230;28;1139;-66
2021/07/05 01:30:49;;;;;;;7.82;4.45;;;;;;;15.73;82.79;100838.63;688188;28;824;-67
2021/07/05 01:31:09;;;;;;;7.32;4.20;;;;;;;15.75;82.80;100843.81;688263;28;877;-67
2021/07/05 01:31:29;;;;;;;6.63;4.30;;;;;;;15.75;82.75;100841.16;688282;28;829;-67
2021/07/05 01:31:50;;;;;;;6.85;4.40;;;;;;;15.76;82.80;100841.09;688112;28;841;-67
2021/07/05 01:32:10;;;;;;;7.47;4.23;;;;;;;15.78;82.41;100836.50;688162;28;955;-67
2021/07/05 01:32:30;;;;;;;7.27;4.33;;;;;;;15.78;82.42;100831.19;688105;28;866;-67
2021/07/05 01:32:54;;;;;;;7.13;4.50;;;;;;;15.77;82.46;100839.28;687681;28;1063;-67
2021/07/05 01:33:15;;;;;;;7.45;4.53;;;;;;;15.78;82.62;100835.66;688066;28;911;-67
2021/07/05 01:33:36;;;;;;;7.93;4.40;;;;;;;15.78;82.66;100827.69;688138;28;923;-67
2021/07/05 01:33:56;;;;;;;7.57;4.20;;;;;;;15.77;82.95;100834.81;688243;28;919;-67
2021/07/05 01:34:16;;;;;;;6.07;4.10;;;;;;;15.82;82.81;100838.00;688189;28;789;-67
2021/07/05 01:34:38;;;;;;;7.40;4.40;;;;;;;15.81;82.54;100832.81;688338;28;836;-68
2021/07/05 01:34:58;;;;;;;7.30;4.32;;;;;;;15.82;82.37;100826.53;688176;28;821;-68
2021/07/05 01:35:18;;;;;;;7.05;4.40;;;;;;;15.80;82.46;100833.78;688164;28;938;-67
2021/07/05 01:35:38;;;;;;;7.60;4.50;;;;;;;15.77;82.65;100833.97;688224;28;1907;-68
2021/07/05 01:35:59;;;;;;;8.07;4.50;;;;;;;15.78;82.50;100836.50;688224;28;998;-68
2021/07/05 01:36:19;;;;;;;7.60;4.30;;;;;;;15.80;82.57;100821.34;690706;28;927;-67
2021/07/05 01:36:40;;;;;;;7.87;4.40;;;;;;;15.80;82.31;100834.63;690690;28;968;-68
2021/07/05 01:37:00;;;;;;;7.30;4.25;;;;;;;15.80;82.06;100831.13;690595;28;994;-66
2021/07/05 01:37:20;;;;;;;6.50;4.20;;;;;;;15.82;82.19;100823.88;690726;28;860;-67
2021/07/05 01:37:41;;;;;;;6.38;4.00;;;;;;;15.82;82.22;100821.22;690698;28;1335;-68
2021/07/05 01:38:08;;;;;;;7.30;4.13;;;;;;;15.80;82.76;100823.16;690428;28;1022;-67
2021/07/05 01:38:28;;;;;;;6.93;4.20;;;;;;;15.76;82.84;100832.22;688301;28;895;-68
2021/07/05 01:38:52;;;;;;;7.07;4.43;;;;;;;15.76;82.64;100821.59;688092;28;907;-67
2021/07/05 01:39:12;;;;;;;7.32;4.15;;;;;;;15.76;82.75;100824.25;688260;28;852;-67
2021/07/05 01:39:33;;;;;;;6.50;4.10;;;;;;;15.78;82.66;100830.34;688105;28;1070;-68